Williamstown, MA (01267)

6:22 PM EST on February 10, 2016 (GMT -0500)
Williams College '66 Environmental Center | | Change Station
CLOSE
Current Station
Personal Weather Station
Location: Williamstown, MA
Elevation: 682 ft
Nearby Weather Stations

Elev 682 ft 42.71 °N, 73.20 °W | Updated 5 minutes ago

Overcast
Overcast
31.4 °F
Feels Like 31 °F
N
2.0
Wind Variable Wind from NW
Gusts 9.0 mph

Today
High -- | Low -- °F
--% Chance of Precip.
Yesterday
High -- | Low -- °F
Precip. -- in
Pressure 29.62 in
Visibility 10.0 miles
Clouds Mostly Cloudy 3600 ft
Overcast 5500 ft
Windchill 31 °F
Dew Point 22 °F
Humidity 68%
Rainfall 0.04 in
Snow Depth Not available.
6:57 AM 5:17 PM
Waxing Crescent, 8% visible
METAR KAQW 102252Z AUTO 27007KT 10SM BKN036 OVC055 M01/M06 A2960 RMK AO2 SNE2157 SLP031 P0000 T10111061
Pressure 29.62 in
Visibility 10.0 miles
Clouds Mostly Cloudy 3600 ft
Overcast 5500 ft
Windchill 31 °F
Dew Point 22 °F
Humidity 68%
Rainfall 0.04 in
Snow Depth Not available.
6:57 AM 5:17 PM
Waxing Crescent, 8% visible
METAR KAQW 102252Z AUTO 27007KT 10SM BKN036 OVC055 M01/M06 A2960 RMK AO2 SNE2157 SLP031 P0000 T10111061

10-Day Weather Forecast

Almanac

Astronomy

Feb. 10, 2016 Rise Set
Actual Time
Civil Twilight
Nautical Twilight
Astronomical Twilight
Moon
Length of Visible Light
Length of Day
Tomorrow will be .
, % of the Moon is Illuminated

Today's Extremes

State Highs State Lows

Community

WunderPhotos

Upload Photos

1,891,935 photos uploaded!

WunderBlog® & News

Nearby

Air Quality

  Air Quality AQ Index Pollutant
Not available.

Snow Depth

Station Depth Elevation

Earthquake Activity

City Distance Mag. Time & Date
Minimum magnitude displayed is 2.5.

Coastal Water Temperatures

Place Temperature

Stations

Nearby Weather Stations

Station Location Temp. Windchill Dew Point Humidity Wind Precip. Elev Updated Type
                   

Watches & Warnings

There are currently no watches in effect.